Time;durP1;ratioP1;P1;durP2;ratioP2;P2;SDS_P1;SDS_P2;PMS_P1;PMS_P2;Temp;Humidity;BMP_temperature;BMP_pressure;BME280_temperature;BME280_humidity;BME280_pressure;Samples;Min_cycle;Max_cycle;Signal;HPM_P1;HPM_P2
2022/03/29 00:01:03;;;;;;;58.03;33.40;;;;;;;9.01;100.00;-24068.63;5012340;28;20234;-71
2022/03/29 00:03:28;;;;;;;63.93;33.87;;;;;;;8.88;100.00;-24065.22;5012235;28;20231;-71
2022/03/29 00:05:53;;;;;;;60.87;34.37;;;;;;;8.61;100.00;-24057.44;5021872;28;20226;-71
2022/03/29 00:08:19;;;;;;;63.40;33.77;;;;;;;8.87;100.00;-24064.78;5031889;28;20176;-71
2022/03/29 00:10:45;;;;;;;53.83;32.87;;;;;;;9.01;100.00;-24068.63;5031308;28;20577;-71
2022/03/29 00:13:11;;;;;;;54.60;31.77;;;;;;;8.82;100.00;-24063.38;5032212;28;20171;-72
2022/03/29 00:15:37;;;;;;;65.10;32.70;;;;;;;8.99;100.00;-24068.03;5031796;28;20164;-71
2022/03/29 00:18:02;;;;;;;60.10;33.07;;;;;;;8.71;100.00;-24060.25;5031830;28;20284;-71
2022/03/29 00:20:28;;;;;;;59.67;32.63;;;;;;;8.80;100.00;-24062.81;5013550;28;20249;-71
2022/03/29 00:22:54;;;;;;;61.50;34.57;;;;;;;8.67;100.00;-24059.28;5031680;28;20182;-71
2022/03/29 00:25:19;;;;;;;61.97;34.83;;;;;;;8.93;100.00;-24066.50;5031401;28;20181;-71
2022/03/29 00:27:45;;;;;;;63.53;34.40;;;;;;;8.58;100.00;-24056.59;5031694;28;20217;-71
2022/03/29 00:30:12;;;;;;;59.10;34.43;;;;;;;8.55;100.00;-24055.88;5031524;28;20662;-71
2022/03/29 00:32:40;;;;;;;62.93;35.57;;;;;;;8.47;100.00;-24053.63;5036850;28;20665;-71
2022/03/29 00:35:06;;;;;;;70.93;36.33;;;;;;;8.73;100.00;-24060.97;5024011;28;20270;-71
2022/03/29 00:37:32;;;;;;;58.73;36.00;;;;;;;8.32;100.00;-24049.50;5023037;28;20551;-71
2022/03/29 00:39:57;;;;;;;69.23;36.83;;;;;;;8.59;100.00;-24057.00;5030806;28;20575;-71
2022/03/29 00:42:23;;;;;;;76.10;37.53;;;;;;;8.53;100.00;-24055.31;5031711;28;20685;-72
2022/03/29 00:44:48;;;;;;;70.73;38.17;;;;;;;8.37;100.00;-24050.94;5031459;28;20164;-72
2022/03/29 00:47:14;;;;;;;65.67;37.00;;;;;;;7.86;100.00;-24036.63;5031762;28;20237;-72
2022/03/29 00:49:39;;;;;;;72.27;38.33;;;;;;;7.96;100.00;-24039.44;5031724;28;20164;-72
2022/03/29 00:52:05;;;;;;;66.83;39.20;;;;;;;8.49;100.00;-24054.03;5031283;28;20179;-72
2022/03/29 00:54:35;;;;;;;65.77;36.60;;;;;;;7.92;100.00;-24038.19;5031486;28;20186;-72
2022/03/29 00:57:02;;;;;;;69.60;36.60;;;;;;;7.90;100.00;-24037.63;5031740;28;20175;-72
2022/03/29 00:59:28;;;;;;;64.27;36.20;;;;;;;7.69;100.00;-24031.66;5031387;28;20619;-72
2022/03/29 01:01:56;;;;;;;66.17;35.50;;;;;;;8.00;100.00;-24040.59;5035590;28;20211;-73
2022/03/29 01:04:22;;;;;;;67.53;36.60;;;;;;;7.65;100.00;-24030.66;5033318;28;20194;-72
2022/03/29 01:06:48;;;;;;;63.97;35.80;;;;;;;7.54;100.00;-24027.56;5031767;28;20223;-72
2022/03/29 01:09:14;;;;;;;63.13;35.77;;;;;;;7.56;100.00;-24028.13;5036754;28;20651;-72
2022/03/29 01:11:40;;;;;;;65.27;35.97;;;;;;;7.41;100.00;-24023.88;5031300;28;20187;-72
2022/03/29 01:14:05;;;;;;;62.73;36.33;;;;;;;7.65;100.00;-24030.66;5031320;28;20191;-72
2022/03/29 01:19:18;;;;;;;57.63;34.97;;;;;;;7.86;100.00;-24036.63;5031786;28;20213;-72
2022/03/29 01:21:59;;;;;;;61.83;35.73;;;;;;;7.81;100.00;-24035.22;5030691;28;20246;-72
2022/03/29 01:24:25;;;;;;;62.20;35.73;;;;;;;7.37;100.00;-24022.72;5031718;28;20643;-72
2022/03/29 01:26:53;;;;;;;65.50;36.13;;;;;;;7.54;100.00;-24027.69;5033777;28;20302;-72
2022/03/29 01:29:20;;;;;;;61.00;35.60;;;;;;;7.20;100.00;-24018.06;5033023;28;20193;-72
2022/03/29 01:31:48;;;;;;;57.43;33.87;;;;;;;7.37;100.00;-24022.88;5037950;28;20176;-72
2022/03/29 01:34:14;;;;;;;62.60;34.80;;;;;;;7.39;100.00;-24023.44;5037029;28;20183;-72
2022/03/29 01:36:40;;;;;;;66.70;35.97;;;;;;;7.10;100.00;-24015.34;5017095;28;20182;-72
2022/03/29 01:39:05;;;;;;;56.67;32.63;;;;;;;7.68;100.00;-24031.38;5034567;28;20537;-72
2022/03/29 01:41:30;;;;;;;56.10;31.23;;;;;;;7.80;100.00;-24034.78;5034799;28;20207;-72
2022/03/29 01:43:57;;;;;;;53.43;31.13;;;;;;;7.99;100.00;-24040.31;5039811;28;20190;-71
2022/03/29 01:46:23;;;;;;;59.57;32.17;;;;;;;8.01;100.00;-24040.72;5020891;28;20184;-70
2022/03/29 01:48:49;;;;;;;60.40;31.60;;;;;;;8.02;100.00;-24040.88;5031490;28;20179;-72
2022/03/29 01:51:14;;;;;;;56.20;32.37;;;;;;;7.50;100.00;-24026.56;5035194;28;20210;-72
2022/03/29 01:53:41;;;;;;;53.77;31.63;;;;;;;7.97;100.00;-24039.72;5034666;28;20515;-72
2022/03/29 01:56:06;;;;;;;51.07;31.57;;;;;;;7.84;100.00;-24036.06;5034976;28;20179;-72
2022/03/29 01:58:32;;;;;;;63.77;33.70;;;;;;;7.70;100.00;-24031.94;5033001;28;20716;-72
2022/03/29 02:00:58;;;;;;;55.20;33.07;;;;;;;7.78;100.00;-24034.34;5033876;28;20203;-72
2022/03/29 02:03:24;;;;;;;59.77;34.77;;;;;;;7.78;100.00;-24034.22;5034160;28;20188;-72
2022/03/29 02:05:49;;;;;;;60.47;36.47;;;;;;;7.95;100.00;-24039.16;5033939;28;20223;-72
2022/03/29 02:08:16;;;;;;;54.57;32.50;;;;;;;7.82;100.00;-24035.34;5033802;28;20224;-71
2022/03/29 02:10:42;;;;;;;59.13;34.33;;;;;;;7.48;100.00;-24026.00;5034026;28;20603;-72
2022/03/29 02:13:09;;;;;;;50.70;31.63;;;;;;;7.39;100.00;-24023.31;5034087;28;20175;-72
2022/03/29 02:15:38;;;;;;;54.20;32.93;;;;;;;7.82;100.00;-24035.47;5033532;28;20568;-72
2022/03/29 02:18:05;;;;;;;63.47;34.33;;;;;;;7.58;100.00;-24028.69;5016017;28;20269;-72
2022/03/29 02:20:31;;;;;;;59.03;34.33;;;;;;;7.40;100.00;-24023.72;5035940;28;20254;-72
2022/03/29 02:23:02;;;;;;;56.10;34.10;;;;;;;7.65;100.00;-24030.66;5015967;28;20499;-72
2022/03/29 02:25:27;;;;;;;59.47;35.53;;;;;;;7.60;100.00;-24029.25;5033794;28;20179;-72
2022/03/29 02:27:53;;;;;;;55.97;33.47;;;;;;;7.28;100.00;-24020.31;5033871;28;20273;-72
2022/03/29 02:30:19;;;;;;;57.57;33.30;;;;;;;7.43;100.00;-24024.44;5031933;28;20242;-72
2022/03/29 02:32:45;;;;;;;54.70;34.80;;;;;;;6.88;100.00;-24009.13;5033555;28;20175;-72
2022/03/29 02:35:11;;;;;;;63.30;34.97;;;;;;;6.82;100.00;-24007.41;5034021;28;20552;-72
2022/03/29 02:37:38;;;;;;;58.20;34.40;;;;;;;6.98;100.00;-24011.94;5034020;28;20615;-72
2022/03/29 02:40:05;;;;;;;59.03;34.07;;;;;;;6.84;100.00;-24008.00;5032521;28;20207;-72
2022/03/29 02:42:31;;;;;;;62.43;33.80;;;;;;;7.24;100.00;-24019.03;5035176;28;20290;-72
2022/03/29 02:44:56;;;;;;;58.67;34.43;;;;;;;7.09;100.00;-24014.94;5035383;28;20332;-72
2022/03/29 02:47:22;;;;;;;59.50;34.37;;;;;;;7.22;100.00;-24018.47;5031898;28;20201;-72
2022/03/29 02:49:47;;;;;;;60.73;34.77;;;;;;;6.75;100.00;-24005.44;5032451;28;20190;-72
2022/03/29 02:52:13;;;;;;;55.20;34.03;;;;;;;6.61;100.00;-24001.59;5038643;28;20271;-71
2022/03/29 02:54:39;;;;;;;57.10;33.57;;;;;;;6.87;100.00;-24008.69;5035943;28;20186;-72
2022/03/29 02:57:06;;;;;;;65.23;33.23;;;;;;;7.01;100.00;-24012.81;5035453;28;20179;-72
2022/03/29 02:59:31;;;;;;;57.93;34.33;;;;;;;6.88;100.00;-24008.97;5035855;28;20194;-72
2022/03/29 03:01:57;;;;;;;59.20;34.73;;;;;;;6.63;100.00;-24002.03;5037953;28;20179;-72
2022/03/29 03:04:22;;;;;;;64.73;35.17;;;;;;;7.01;100.00;-24012.66;5036604;28;20197;-72
2022/03/29 03:06:48;;;;;;;61.30;34.50;;;;;;;6.51;100.00;-23998.75;5035289;28;20233;-71
2022/03/29 03:09:13;;;;;;;57.87;35.13;;;;;;;7.03;100.00;-24013.38;5039810;28;20201;-72
2022/03/29 03:11:39;;;;;;;52.67;33.53;;;;;;;6.61;100.00;-24001.47;5015525;28;20182;-71
2022/03/29 03:14:05;;;;;;;59.13;34.90;;;;;;;6.84;100.00;-24007.84;5037247;28;20217;-71
2022/03/29 03:16:30;;;;;;;52.50;32.67;;;;;;;6.56;100.00;-24000.03;5034807;28;20186;-71
2022/03/29 03:18:56;;;;;;;61.07;33.50;;;;;;;7.01;100.00;-24012.81;5036937;28;20189;-71
2022/03/29 03:21:23;;;;;;;55.23;32.53;;;;;;;6.58;100.00;-24000.59;5034901;28;20607;-72
2022/03/29 03:23:49;;;;;;;57.90;32.57;;;;;;;6.98;100.00;-24011.81;5033909;28;20179;-71
2022/03/29 03:26:15;;;;;;;67.77;32.77;;;;;;;6.75;100.00;-24005.28;5032013;28;20198;-71
2022/03/29 03:28:40;;;;;;;51.03;31.33;;;;;;;6.56;100.00;-24000.19;5032352;28;20187;-71
2022/03/29 03:31:05;;;;;;;50.93;32.13;;;;;;;6.84;100.00;-24008.00;5030454;28;20862;-73
2022/03/29 03:33:31;;;;;;;52.30;32.40;;;;;;;6.59;100.00;-24001.03;5032978;28;20217;-73
2022/03/29 03:35:57;;;;;;;65.67;32.97;;;;;;;6.74;100.00;-24005.00;5034747;28;20228;-70
2022/03/29 03:38:22;;;;;;;57.83;33.27;;;;;;;6.77;100.00;-24006.00;5035879;28;20178;-71
2022/03/29 03:40:47;;;;;;;53.27;31.77;;;;;;;7.03;100.00;-24013.22;5034032;28;20207;-71
2022/03/29 03:43:13;;;;;;;56.37;33.27;;;;;;;7.00;100.00;-24012.53;5034639;28;20186;-70
2022/03/29 03:45:38;;;;;;;55.50;32.50;;;;;;;7.32;100.00;-24021.31;5034739;28;20579;-71
2022/03/29 03:48:04;;;;;;;61.07;32.50;;;;;;;7.20;100.00;-24017.91;5034595;28;20726;-73
2022/03/29 03:50:30;;;;;;;63.73;34.30;;;;;;;7.31;100.00;-24021.16;5034395;28;20197;-70
2022/03/29 03:52:56;;;;;;;117.50;52.37;;;;;;;7.31;100.00;-24021.03;5035470;28;20184;-70
2022/03/29 03:55:21;;;;;;;95.30;45.90;;;;;;;7.20;100.00;-24017.91;5035393;28;20526;-71
2022/03/29 03:57:50;;;;;;;69.60;35.17;;;;;;;7.03;100.00;-24013.22;5034280;28;20175;-71
2022/03/29 04:00:16;;;;;;;61.10;33.20;;;;;;;6.86;100.00;-24008.56;5035279;28;20206;-71
2022/03/29 04:02:42;;;;;;;57.83;32.37;;;;;;;5.72;100.00;-23976.59;5033918;28;20179;-72
2022/03/29 04:05:12;;;;;;;58.73;32.47;;;;;;;6.90;100.00;-24009.53;5033937;28;20597;-72
2022/03/29 04:07:38;;;;;;;64.00;33.83;;;;;;;6.91;100.00;-24009.97;5034408;28;20266;-72
2022/03/29 04:10:03;;;;;;;55.13;32.53;;;;;;;6.91;100.00;-24009.97;5035075;28;20474;-72
2022/03/29 04:12:31;;;;;;;59.97;32.17;;;;;;;6.85;100.00;-24008.25;5034709;28;20284;-73
2022/03/29 04:14:57;;;;;;;53.47;32.83;;;;;;;6.47;100.00;-23997.47;5037147;28;20191;-71
2022/03/29 04:17:22;;;;;;;54.67;32.93;;;;;;;6.45;100.00;-23996.91;5035528;28;20175;-72
2022/03/29 04:19:48;;;;;;;61.53;34.10;;;;;;;6.54;100.00;-23999.47;5034064;28;20269;-72
2022/03/29 04:22:13;;;;;;;56.27;35.20;;;;;;;6.68;100.00;-24003.31;5033796;28;20187;-72
2022/03/29 04:24:39;;;;;;;66.13;35.33;;;;;;;6.89;100.00;-24009.41;5016990;28;20198;-73
2022/03/29 04:27:05;;;;;;;61.47;34.93;;;;;;;6.83;100.00;-24007.69;5025564;28;20184;-72
2022/03/29 04:29:30;;;;;;;62.00;34.70;;;;;;;6.78;100.00;-24006.28;5022085;28;20186;-72
2022/03/29 04:31:56;;;;;;;62.60;36.10;;;;;;;7.08;100.00;-24014.78;5033963;28;20226;-73
2022/03/29 04:34:21;;;;;;;64.67;36.80;;;;;;;6.79;100.00;-24006.44;5016158;28;20175;-72
2022/03/29 04:36:47;;;;;;;60.13;35.57;;;;;;;6.80;100.00;-24006.72;5031474;28;20236;-73
2022/03/29 04:39:12;;;;;;;70.13;36.93;;;;;;;6.61;100.00;-24001.59;5031262;28;20279;-73
2022/03/29 04:41:39;;;;;;;61.03;34.13;;;;;;;7.39;100.00;-24023.31;5030700;28;20278;-71
2022/03/29 04:44:05;;;;;;;58.80;35.03;;;;;;;7.19;100.00;-24017.63;5030564;28;20167;-72
2022/03/29 04:46:30;;;;;;;67.27;34.63;;;;;;;7.37;100.00;-24022.72;5031415;28;20195;-72
2022/03/29 04:48:56;;;;;;;61.33;34.50;;;;;;;7.72;100.00;-24032.66;5031099;28;20210;-72
2022/03/29 04:51:21;;;;;;;58.83;34.83;;;;;;;7.89;100.00;-24037.47;5030905;28;20176;-72
2022/03/29 04:53:47;;;;;;;62.63;34.77;;;;;;;8.02;100.00;-24041.00;5030853;28;20160;-72
2022/03/29 04:56:12;;;;;;;58.77;33.97;;;;;;;7.71;100.00;-24032.22;5033277;28;20211;-72
2022/03/29 04:58:38;;;;;;;57.57;35.17;;;;;;;8.07;100.00;-24042.44;5030946;28;20186;-72
2022/03/29 05:01:04;;;;;;;57.60;33.30;;;;;;;8.18;100.00;-24045.53;5031192;28;20203;-72
2022/03/29 05:03:31;;;;;;;66.97;35.67;;;;;;;7.71;100.00;-24032.22;5030427;28;20269;-72
2022/03/29 05:05:57;;;;;;;57.57;34.77;;;;;;;8.24;100.00;-24047.09;5030688;28;20215;-72
2022/03/29 05:08:22;;;;;;;59.43;33.77;;;;;;;8.37;100.00;-24050.78;5038368;28;20186;-71
2022/03/29 05:10:48;;;;;;;59.90;35.43;;;;;;;8.26;100.00;-24047.81;5035024;28;20955;-72
2022/03/29 05:13:15;;;;;;;57.70;34.23;;;;;;;8.39;100.00;-24051.34;5015770;28;20227;-72
2022/03/29 05:15:41;;;;;;;71.53;35.37;;;;;;;8.69;100.00;-24059.69;5034066;28;20176;-72
2022/03/29 05:18:06;;;;;;;76.97;37.37;;;;;;;8.82;100.00;-24063.53;5034237;28;20183;-72
2022/03/29 05:20:31;;;;;;;75.10;37.30;;;;;;;8.83;100.00;-24063.81;5035965;28;20211;-72
2022/03/29 05:22:57;;;;;;;74.20;35.37;;;;;;;8.86;100.00;-24064.50;5038286;28;20205;-69
2022/03/29 05:25:24;;;;;;;72.67;35.83;;;;;;;8.45;100.00;-24052.91;5036749;28;20606;-66
2022/03/29 05:27:55;;;;;;;62.27;34.57;;;;;;;8.78;100.00;-24062.25;5037010;28;20673;-70
2022/03/29 05:30:21;;;;;;;66.80;34.77;;;;;;;8.35;100.00;-24050.22;5025703;28;20321;-65
2022/03/29 05:32:47;;;;;;;55.37;31.07;;;;;;;9.35;100.00;-24078.09;5037138;28;20715;-72
2022/03/29 05:35:13;;;;;;;64.67;32.93;;;;;;;9.03;100.00;-24069.19;5041446;28;20546;-70
2022/03/29 05:37:41;;;;;;;62.13;32.33;;;;;;;9.30;100.00;-24076.94;5023191;28;20187;-71
2022/03/29 05:40:08;;;;;;;54.77;32.47;;;;;;;9.37;100.00;-24078.66;5043836;28;20630;-72
2022/03/29 05:42:37;;;;;;;59.90;33.23;;;;;;;9.96;100.00;-24095.19;5038766;28;20202;-72
2022/03/29 05:45:03;;;;;;;60.37;33.07;;;;;;;9.79;100.00;-24090.38;5018391;28;20552;-71
2022/03/29 05:50:12;;;;;;;55.30;31.60;;;;;;;10.07;100.00;-24098.44;5039244;28;20677;-70
2022/03/29 05:52:38;;;;;;;48.77;31.10;;;;;;;10.54;100.00;-24111.56;5034542;28;20179;-70
2022/03/29 05:55:04;;;;;;;52.77;32.80;;;;;;;10.15;100.00;-24100.53;5037622;28;20175;-69
2022/03/29 05:57:30;;;;;;;58.83;31.87;;;;;;;10.78;100.00;-24118.19;5035607;28;20184;-71
2022/03/29 05:59:56;;;;;;;60.53;34.23;;;;;;;11.03;100.00;-24125.09;5034049;28;20179;-72
2022/03/29 06:02:24;;;;;;;59.43;34.60;;;;;;;11.14;100.00;-24128.06;5015884;28;20638;-71
2022/03/29 06:04:50;;;;;;;52.77;32.37;;;;;;;11.11;100.00;-24127.22;5032357;28;20238;-70
2022/03/29 06:07:15;;;;;;;53.03;31.30;;;;;;;11.48;100.00;-24137.78;5033729;28;20769;-71
2022/03/29 06:09:40;;;;;;;52.57;31.10;;;;;;;11.28;100.00;-24132.16;5033976;28;20665;-71
2022/03/29 06:12:06;;;;;;;58.03;32.47;;;;;;;11.79;99.79;-24146.38;5033905;28;20250;-71
2022/03/29 06:14:32;;;;;;;59.07;33.93;;;;;;;11.47;99.40;-24137.34;5033891;28;20520;-72
2022/03/29 06:16:57;;;;;;;57.33;34.83;;;;;;;11.43;100.00;-24136.22;5036492;28;20258;-73
2022/03/29 06:19:23;;;;;;;66.43;35.42;;;;;;;11.62;100.00;-24141.44;5032795;28;20190;-73
2022/03/29 06:21:48;;;;;;;71.53;36.72;;;;;;;11.62;100.00;-24141.59;5017984;28;20210;-73
2022/03/29 06:24:14;;;;;;;58.88;34.50;;;;;;;11.97;98.35;-24151.16;5035966;28;20202;-71
2022/03/29 06:26:39;;;;;;;58.78;33.47;;;;;;;12.17;96.67;-24156.94;5035825;28;20184;-73
2022/03/29 06:29:09;;;;;;;54.42;30.15;;;;;;;12.33;95.96;-24161.44;5026074;28;20187;-72
2022/03/29 06:31:35;;;;;;;63.92;30.20;;;;;;;12.25;94.11;-24159.19;5022626;28;20201;-71
2022/03/29 06:34:01;;;;;;;60.38;28.15;;;;;;;12.68;93.50;-24171.16;5035908;28;20634;-72
2022/03/29 06:36:26;;;;;;;67.03;28.83;;;;;;;12.85;91.81;-24175.78;5033721;28;20218;-71
2022/03/29 06:38:52;;;;;;;71.22;29.58;;;;;;;12.97;91.37;-24179.16;5033630;28;20635;-72
2022/03/29 06:41:19;;;;;;;65.53;27.88;;;;;;;13.21;90.32;-24185.78;5035913;28;20241;-73
2022/03/29 06:43:45;;;;;;;48.45;23.45;;;;;;;13.20;90.51;-24185.50;5038744;28;20571;-73
2022/03/29 06:46:10;;;;;;;39.30;23.05;;;;;;;13.22;90.83;-24186.19;5020921;28;20215;-72
2022/03/29 06:48:36;;;;;;;42.35;24.38;;;;;;;12.99;89.19;-24179.72;5035670;28;20206;-71
2022/03/29 06:51:01;;;;;;;38.08;23.20;;;;;;;13.45;89.33;-24192.53;5018763;28;20183;-69
2022/03/29 06:53:27;;;;;;;37.38;23.20;;;;;;;13.50;90.37;-24193.78;5033201;28;20163;-73
2022/03/29 06:55:53;;;;;;;34.50;21.85;;;;;;;13.63;90.51;-24197.56;5032646;28;20258;-70
2022/03/29 06:58:20;;;;;;;40.58;21.98;;;;;;;13.88;87.37;-24204.44;5035695;28;20290;-72
2022/03/29 07:00:45;;;;;;;41.70;22.85;;;;;;;13.37;84.95;-24190.25;5038369;28;20214;-73
2022/03/29 07:03:11;;;;;;;34.55;20.95;;;;;;;14.17;84.37;-24212.44;5038711;28;20184;-73
2022/03/29 07:05:38;;;;;;;35.40;21.92;;;;;;;13.96;82.53;-24206.69;5034265;28;20302;-71
2022/03/29 07:08:05;;;;;;;32.70;20.38;;;;;;;14.28;78.61;-24215.41;5036951;28;20657;-70
2022/03/29 07:13:15;;;;;;;38.80;19.80;;;;;;;14.61;75.34;-24224.50;5034543;28;20278;-72
2022/03/29 07:15:41;;;;;;;30.83;19.80;;;;;;;14.77;73.10;-24229.13;5038924;28;20179;-72
2022/03/29 07:18:07;;;;;;;34.55;21.50;;;;;;;15.28;71.85;-24243.16;5036071;28;20178;-72
2022/03/29 07:20:33;;;;;;;39.80;21.70;;;;;;;15.36;71.38;-24245.38;5036783;28;20285;-73
2022/03/29 07:22:59;;;;;;;36.95;21.17;;;;;;;15.20;68.52;-24240.91;5034827;28;20180;-71
2022/03/29 07:25:27;;;;;;;38.65;22.00;;;;;;;15.13;72.05;-24238.94;5034429;28;20183;-71
2022/03/29 07:27:53;;;;;;;31.02;20.45;;;;;;;15.60;64.99;-24251.97;5037735;28;20221;-72
2022/03/29 07:30:20;;;;;;;36.80;21.00;;;;;;;15.74;65.84;-24256.03;5037090;28;20213;-73
2022/03/29 07:32:51;;;;;;;35.33;21.17;;;;;;;15.78;65.29;-24257.16;5022309;28;20190;-74
2022/03/29 07:35:19;;;;;;;38.25;21.63;;;;;;;16.20;63.92;-24268.75;5037849;28;20183;-73
2022/03/29 07:37:46;;;;;;;37.63;20.70;;;;;;;15.89;65.14;-24260.22;5025709;28;20244;-73
2022/03/29 07:40:14;;;;;;;37.65;20.30;;;;;;;15.56;66.26;-24251.00;5037379;28;20290;-71
2022/03/29 07:42:39;;;;;;;34.80;19.92;;;;;;;15.36;68.22;-24245.53;5035921;28;20631;-70
2022/03/29 07:45:07;;;;;;;37.45;20.05;;;;;;;15.38;67.43;-24245.94;5039872;28;20225;-72
2022/03/29 07:47:37;;;;;;;36.95;19.00;;;;;;;16.10;63.37;-24265.81;5038263;28;20233;-71
2022/03/29 07:50:06;;;;;;;27.95;17.33;;;;;;;16.57;61.10;-24278.81;5033767;28;20682;-70
2022/03/29 07:52:33;;;;;;;34.00;17.98;;;;;;;16.34;64.82;-24272.69;5032517;28;20515;-70
2022/03/29 07:54:59;;;;;;;31.13;18.92;;;;;;;16.26;64.93;-24270.31;5034152;28;20286;-70
2022/03/29 07:57:25;;;;;;;29.67;18.80;;;;;;;16.04;62.61;-24264.16;5024957;28;20198;-72
2022/03/29 07:59:50;;;;;;;37.10;18.35;;;;;;;16.50;63.45;-24276.88;5022215;28;20183;-72
2022/03/29 08:02:16;;;;;;;25.35;16.27;;;;;;;16.82;60.23;-24285.69;5039250;28;20174;-72
2022/03/29 08:04:41;;;;;;;25.70;15.40;;;;;;;17.15;56.65;-24294.91;5036291;28;20233;-72
2022/03/29 08:07:08;;;;;;;25.38;15.45;;;;;;;17.28;55.32;-24298.38;5031498;28;20678;-71
2022/03/29 08:09:34;;;;;;;23.48;13.50;;;;;;;17.56;52.54;-24306.19;5031902;28;20198;-70
2022/03/29 08:12:00;;;;;;;17.10;12.93;;;;;;;17.54;50.13;-24305.63;5029423;28;20180;-72
2022/03/29 08:14:26;;;;;;;39.08;13.40;;;;;;;17.88;49.22;-24315.00;5033733;28;20569;-71
2022/03/29 08:16:53;;;;;;;24.70;13.23;;;;;;;17.57;49.83;-24306.63;5029977;28;20182;-71
2022/03/29 08:19:20;;;;;;;24.00;14.18;;;;;;;17.99;49.59;-24318.19;5030279;28;20187;-70
2022/03/29 08:21:52;;;;;;;26.05;14.75;;;;;;;17.83;49.81;-24313.59;5037464;28;20202;-71
2022/03/29 08:24:22;;;;;;;21.38;13.63;;;;;;;17.78;52.43;-24312.19;5020551;28;20277;-72
2022/03/29 08:26:50;;;;;;;25.33;14.27;;;;;;;17.98;51.31;-24317.91;5032715;28;20226;-71
2022/03/29 08:29:16;;;;;;;22.70;12.90;;;;;;;18.08;50.27;-24320.72;5035758;28;20190;-72
2022/03/29 08:31:44;;;;;;;25.35;13.80;;;;;;;17.92;49.66;-24316.09;5020702;28;20267;-71
2022/03/29 08:34:10;;;;;;;24.95;14.38;;;;;;;18.32;48.91;-24327.25;5027476;28;20168;-70
2022/03/29 08:36:38;;;;;;;28.17;14.05;;;;;;;18.27;48.48;-24325.72;5034448;28;20193;-73
2022/03/29 08:39:06;;;;;;;21.17;13.38;;;;;;;18.28;49.02;-24326.13;5034300;28;20179;-73
2022/03/29 08:41:39;;;;;;;27.13;14.55;;;;;;;18.24;48.99;-24324.88;5033509;28;20683;-71
2022/03/29 08:44:06;;;;;;;25.02;13.82;;;;;;;18.57;48.79;-24333.94;5038915;28;20287;-71
2022/03/29 08:46:38;;;;;;;24.88;14.80;;;;;;;18.61;48.34;-24335.19;5038569;28;20191;-72
2022/03/29 08:49:05;;;;;;;24.02;13.80;;;;;;;18.64;47.35;-24335.91;5035820;28;20429;-71
2022/03/29 08:51:32;;;;;;;23.45;14.25;;;;;;;18.92;47.59;-24343.69;5030185;28;20587;-70
2022/03/29 08:53:57;;;;;;;22.38;13.10;;;;;;;18.63;48.38;-24335.75;5030862;28;20183;-72
2022/03/29 08:56:23;;;;;;;19.50;13.77;;;;;;;19.04;49.12;-24346.91;5030990;28;20266;-71
2022/03/29 08:58:49;;;;;;;24.83;13.55;;;;;;;18.80;47.49;-24340.50;5032903;28;20262;-72
2022/03/29 09:01:19;;;;;;;23.23;13.50;;;;;;;19.13;47.97;-24349.53;5037329;28;20198;-71
2022/03/29 09:04:04;;;;;;;23.42;14.70;;;;;;;19.05;47.41;-24347.31;5033022;28;20171;-71
2022/03/29 09:06:29;;;;;;;20.33;14.00;;;;;;;19.20;47.13;-24351.34;5030752;28;20444;-72
2022/03/29 09:08:55;;;;;;;22.85;14.10;;;;;;;19.03;46.51;-24346.63;5032214;28;20182;-72
2022/03/29 09:11:21;;;;;;;20.55;13.27;;;;;;;19.12;45.75;-24349.25;5035319;28;20672;-71
2022/03/29 09:14:00;;;;;;;26.75;13.82;;;;;;;18.93;47.24;-24343.97;5032891;28;20192;-72
2022/03/29 09:16:29;;;;;;;22.73;13.73;;;;;;;18.93;46.09;-24344.13;5025048;28;20179;-74
2022/03/29 09:18:55;;;;;;;23.23;15.38;;;;;;;18.68;46.41;-24337.16;5020468;28;20213;-73
2022/03/29 09:21:20;;;;;;;20.08;14.32;;;;;;;18.79;46.49;-24340.22;5030333;28;20626;-73
2022/03/29 09:24:08;;;;;;;21.60;15.63;;;;;;;18.90;44.66;-24343.13;5001175;28;20199;-73
2022/03/29 09:26:36;;;;;;;26.00;15.43;;;;;;;19.12;44.71;-24349.13;5032146;28;20184;-73
2022/03/29 09:29:01;;;;;;;26.92;15.98;;;;;;;18.72;44.73;-24338.25;5012663;28;20697;-72
2022/03/29 09:31:27;;;;;;;32.45;16.33;;;;;;;18.94;44.13;-24344.25;5031956;28;20262;-72
2022/03/29 09:34:16;;;;;;;27.08;16.52;;;;;;;19.54;43.58;-24360.81;5025445;28;20206;-73
2022/03/29 09:36:48;;;;;;;25.02;15.93;;;;;;;19.29;44.18;-24353.84;5010005;28;20195;-73
2022/03/29 09:39:31;;;;;;;29.80;17.20;;;;;;;18.97;44.79;-24345.09;5023542;28;20183;-73
2022/03/29 09:42:02;;;;;;;30.75;17.35;;;;;;;18.86;45.68;-24342.16;5029737;28;20635;-71
2022/03/29 09:44:42;;;;;;;26.77;17.23;;;;;;;18.86;45.02;-24342.03;5029640;28;20651;-71
2022/03/29 09:47:09;;;;;;;32.88;17.70;;;;;;;18.68;45.19;-24337.00;5029918;28;20626;-72
2022/03/29 09:50:01;;;;;;;33.65;17.75;;;;;;;18.86;44.28;-24342.03;5030195;28;20171;-72
2022/03/29 09:52:31;;;;;;;33.53;18.00;;;;;;;19.12;44.28;-24349.13;5030024;28;20619;-72
2022/03/29 09:55:18;;;;;;;30.05;17.80;;;;;;;19.67;43.18;-24364.28;5033019;28;20614;-71
2022/03/29 09:57:49;;;;;;;28.17;16.48;;;;;;;19.86;43.77;-24369.56;5017591;28;20241;-73
2022/03/29 10:00:19;;;;;;;25.88;16.30;;;;;;;19.67;44.36;-24364.28;5033623;28;20207;-73
2022/03/29 10:02:46;;;;;;;25.52;16.35;;;;;;;19.55;42.55;-24360.94;5015828;28;20195;-73
2022/03/29 10:05:15;;;;;;;27.65;16.83;;;;;;;19.35;42.52;-24355.66;5016528;28;20183;-72
2022/03/29 10:11:03;;;;;;;29.33;17.30;;;;;;;19.88;42.07;-24370.13;4952677;28;20262;-73
2022/03/29 10:13:30;;;;;;;24.95;15.77;;;;;;;19.83;41.51;-24368.72;5027007;28;20187;-72
2022/03/29 10:15:56;;;;;;;24.35;15.52;;;;;;;19.91;41.55;-24370.81;4999230;28;20337;-73
2022/03/29 10:18:26;;;;;;;26.58;16.10;;;;;;;19.80;41.72;-24368.03;5033192;28;20175;-72
2022/03/29 10:20:52;;;;;;;30.90;15.30;;;;;;;19.84;41.41;-24369.00;5033551;28;20253;-73
2022/03/29 10:23:21;;;;;;;23.77;15.55;;;;;;;20.18;40.13;-24378.31;5033202;28;20538;-71
2022/03/29 10:25:48;;;;;;;26.25;15.75;;;;;;;20.33;40.01;-24382.34;5035563;28;20174;-73
2022/03/29 10:28:14;;;;;;;30.08;16.15;;;;;;;20.56;39.39;-24388.75;5037071;28;20651;-72
2022/03/29 10:30:41;;;;;;;26.75;15.98;;;;;;;21.03;38.42;-24401.63;5037518;28;20184;-74
2022/03/29 10:33:20;;;;;;;25.92;14.93;;;;;;;21.12;37.64;-24404.28;5038037;28;20191;-74
2022/03/29 10:36:11;;;;;;;29.30;15.15;;;;;;;21.23;36.90;-24407.19;5016802;28;20182;-72
2022/03/29 10:38:43;;;;;;;27.10;15.20;;;;;;;21.61;37.03;-24417.59;5034091;28;20207;-73
2022/03/29 10:41:27;;;;;;;25.15;15.55;;;;;;;21.74;36.44;-24421.19;5033568;28;20203;-70
2022/03/29 10:44:04;;;;;;;21.30;13.32;;;;;;;21.27;36.27;-24408.28;5032910;28;20168;-72
2022/03/29 10:46:41;;;;;;;21.23;12.27;;;;;;;21.52;35.50;-24415.09;5033219;28;20185;-73
2022/03/29 10:49:34;;;;;;;28.50;12.98;;;;;;;21.71;35.82;-24420.22;5032359;28;20556;-73
2022/03/29 10:52:05;;;;;;;22.40;12.93;;;;;;;21.66;36.01;-24418.81;5024477;28;20728;-72
2022/03/29 10:54:37;;;;;;;22.38;13.02;;;;;;;21.43;36.11;-24412.72;5038051;28;20562;-72
2022/03/29 10:57:20;;;;;;;25.48;13.45;;;;;;;21.73;35.74;-24420.91;5015831;28;20636;-71
2022/03/29 10:59:50;;;;;;;21.10;12.45;;;;;;;21.61;35.60;-24417.59;5033350;28;20278;-73
2022/03/29 11:02:20;;;;;;;24.17;12.57;;;;;;;21.75;36.54;-24421.31;5015071;28;20199;-73
2022/03/29 11:05:05;;;;;;;24.08;11.32;;;;;;;21.78;35.11;-24422.16;5032543;28;20565;-73
2022/03/29 11:07:38;;;;;;;24.38;11.73;;;;;;;21.84;35.19;-24423.94;5033454;28;20178;-73
2022/03/29 11:10:18;;;;;;;24.30;12.00;;;;;;;21.74;35.59;-24421.19;5032930;28;20168;-73
2022/03/29 11:13:02;;;;;;;24.70;12.45;;;;;;;21.84;35.60;-24423.94;5015428;28;20183;-72
2022/03/29 11:15:28;;;;;;;20.45;12.13;;;;;;;22.09;34.99;-24430.75;5033955;28;20193;-72
2022/03/29 11:17:55;;;;;;;21.17;12.52;;;;;;;22.04;35.04;-24429.34;5015237;28;20175;-71
2022/03/29 11:20:32;;;;;;;20.20;11.63;;;;;;;22.34;33.28;-24437.53;5034944;28;20218;-73
2022/03/29 11:23:11;;;;;;;27.55;12.05;;;;;;;21.96;34.54;-24427.28;5032924;28;20248;-73